Shinko Maru — JL6636 — position and weather

sailwx.info

Track history (hours):
 
Tides and Currents Weather Stations Pressure Air Temp Water Temp Dewpoint Dewpoint Depression Visibility Wind Speed Wind Dir Waves Ship Positions

Shinko Maru

Last reported at 2017-Dec-11 17:00 UTC. Time now 2017-Dec-12 02:51 UTC.
Position N 33°53' E 132°31'.

Length 66 m; draft 4.6 m.

Type: Tanker. MMSI: 431501479.

Date/timePositionNaut miles runAvg speedWind from/ knotsBaromVisibWave heightAir tempDewpointWater temp
2017-Dec-11 17:00N 33°53' E 132°31'510.4
2017-Dec-11 16:30N 33°55' E 132°37'510.3
2017-Dec-11 16:00N 33°57' E 132°42'86 9.3
2017-Dec-11 06:41N 34°25' E 134°21'211.0
2017-Dec-11 06:29N 34°26' E 134°23'511.0
2017-Dec-11 06:00N 34°28' E 134°29'510.8
2017-Dec-11 05:30N 34°30' E 134°35'510.8
2017-Dec-11 05:00N 34°32' E 134°41'611.4
2017-Dec-11 04:30N 34°34' E 134°48'612.1
2017-Dec-11 04:00N 34°36' E 134°55'511.0
2017-Dec-11 03:30N 34°37' E 135°01'510.6
2017-Dec-11 03:00N 34°35' E 135°07'510.7
2017-Dec-11 02:30N 34°35' E 135°14'510.5
2017-Dec-11 02:00N 34°34' E 135°20'5 9.1
2017-Dec-11 01:31N 34°33' E 135°26'0 0.2
2017-Dec-11 01:00N 34°33' E 135°26'0 0.0
2017-Dec-11 00:30N 34°33' E 135°26'0 0.0
2017-Dec-11 00:00N 34°33' E 135°26'0 0.0
2017-Dec-10 23:30N 34°33' E 135°26'0 0.0
2017-Dec-10 23:00N 34°33' E 135°26'1 2.1
2017-Dec-10 22:31N 34°33' E 135°24'1 2.1
2017-Dec-10 21:58N 34°34' E 135°23'0 0.0
2017-Dec-10 21:28N 34°34' E 135°23'0 0.0
2017-Dec-10 20:58N 34°34' E 135°23'0 0.0
2017-Dec-10 20:28N 34°34' E 135°23'0 0.0
2017-Dec-10 19:58N 34°34' E 135°23'0 0.0
2017-Dec-10 19:28N 34°34' E 135°23'0 0.0
2017-Dec-10 18:58N 34°34' E 135°23'0 0.0
2017-Dec-10 18:28N 34°34' E 135°23'0 0.0
2017-Dec-10 17:58N 34°34' E 135°23'0 0.0
2017-Dec-10 17:28N 34°34' E 135°23'0 0.0
2017-Dec-10 16:58N 34°34' E 135°23'0 0.0
2017-Dec-10 16:28N 34°34' E 135°23'0 0.0
2017-Dec-10 15:58N 34°34' E 135°23'0 0.0
2017-Dec-10 15:28N 34°34' E 135°23'0 0.0
2017-Dec-10 14:58N 34°34' E 135°23'0 0.0
2017-Dec-10 14:28N 34°34' E 135°23'0 0.0
2017-Dec-10 13:58N 34°34' E 135°23'0 0.0
2017-Dec-10 13:28N 34°34' E 135°23'0 0.0
2017-Dec-10 12:58N 34°34' E 135°23'0 0.0
2017-Dec-10 12:28N 34°34' E 135°23'0 0.0
2017-Dec-10 11:58N 34°34' E 135°23'0 0.0
2017-Dec-10 11:28N 34°34' E 135°23'0 0.0
2017-Dec-10 10:58N 34°34' E 135°23'0 0.0
2017-Dec-10 10:28N 34°34' E 135°23'0 0.0
2017-Dec-10 09:58N 34°34' E 135°23'0 0.0
2017-Dec-10 09:28N 34°34' E 135°23'0 0.0
2017-Dec-10 08:58N 34°34' E 135°23'0 0.0
2017-Dec-10 08:28N 34°34' E 135°23'0 0.0
2017-Dec-10 07:58N 34°34' E 135°23'0 0.0
2017-Dec-10 07:28N 34°34' E 135°23'0 0.0
2017-Dec-10 06:58N 34°34' E 135°23'0 0.0
2017-Dec-10 06:28N 34°34' E 135°23'0 0.0
2017-Dec-10 05:58N 34°34' E 135°23'0 0.0
2017-Dec-10 05:28N 34°34' E 135°23'0 0.0
2017-Dec-10 04:58N 34°34' E 135°23'0 0.0
2017-Dec-10 04:28N 34°34' E 135°23'0 0.0
2017-Dec-10 03:55N 34°34' E 135°23'0 0.0
2017-Dec-10 03:28N 34°34' E 135°23'0 0.0
2017-Dec-10 02:58N 34°34' E 135°23'0 0.0
2017-Dec-10 02:28N 34°34' E 135°23'0 0.1
2017-Dec-10 01:58N 34°34' E 135°23'0 0.0
2017-Dec-10 01:28N 34°34' E 135°23'0 0.0
2017-Dec-10 00:58N 34°34' E 135°23'0 0.0
2017-Dec-10 00:30N 34°34' E 135°23'5 9.2
2017-Dec-10 00:00N 34°34' E 135°18'611.5
2017-Dec-09 23:30N 34°34' E 135°11'611.7
2017-Dec-09 23:00N 34°36' E 135°04'612.4
2017-Dec-09 22:31N 34°36' E 134°56'713.4
2017-Dec-09 22:01N 34°33' E 134°49'612.3
2017-Dec-09 21:30N 34°31' E 134°42'612.0
2017-Dec-09 21:00N 34°29' E 134°35'611.9
2017-Dec-09 20:30N 34°26' E 134°28'1411.8
2017-Dec-09 19:18N 34°25' E 134°11'7410.7
2017-Dec-09 12:23N 34°01' E 132°46'411.0
2017-Dec-09 12:00N 33°58' E 132°43'510.5
2017-Dec-09 11:29N 33°54' E 132°38'611.0
2017-Dec-09 10:59N 33°52' E 132°32'610.9
2017-Dec-09 10:25N 33°50' E 132°25'510.7
2017-Dec-09 09:55N 33°50' E 132°18'611.1
2017-Dec-09 09:23N 33°49' E 132°11'411.0
2017-Dec-09 09:00N 33°47' E 132°07'1011.1
2017-Dec-09 08:05N 33°45' E 131°55'111.9
2017-Dec-09 08:00N 33°45' E 131°54'612.1
2017-Dec-09 07:30N 33°46' E 131°47'612.3
2017-Dec-09 07:00N 33°48' E 131°39'612.0
2017-Dec-09 06:30N 33°49' E 131°32'611.9
2017-Dec-09 06:00N 33°50' E 131°25'611.8
2017-Dec-09 05:30N 33°51' E 131°18'611.8
2017-Dec-09 05:00N 33°53' E 131°12'611.4
2017-Dec-09 04:30N 33°56' E 131°06'510.7
2017-Dec-09 04:01N 33°58' E 131°00'4 8.4
2017-Dec-09 03:30N 33°56' E 130°56'3 6.2
2017-Dec-09 03:00N 33°55' E 130°53'1 2.1
2017-Dec-09 02:25N 33°55' E 130°51'0 0.0
2017-Dec-09 01:58N 33°55' E 130°51'0 0.0
2017-Dec-09 01:25N 33°55' E 130°51'0 0.0
2017-Dec-09 00:58N 33°55' E 130°51'0 0.1
2017-Dec-09 00:30N 33°55' E 130°51'3 6.4
2017-Dec-09 00:00N 33°55' E 130°55'4 7.8
2017-Dec-08 23:30N 33°58' E 130°58'4 7.6
2017-Dec-08 23:00N 33°58' E 131°02'511.0
2017-Dec-08 22:30N 33°55' E 131°08'611.1
2017-Dec-08 22:00N 33°52' E 131°14'611.0
2017-Dec-08 21:30N 33°51' E 131°20'510.8
2017-Dec-08 21:00N 33°51' E 131°27'510.6
2017-Dec-08 20:30N 33°50' E 131°33'510.6
2017-Dec-08 20:01N 33°49' E 131°39'510.2
2017-Dec-08 19:30N 33°47' E 131°45'610.1
2017-Dec-08 18:56N 33°46' E 131°52'810.4
2017-Dec-08 18:07N 33°45' E 132°02'211.3
2017-Dec-08 17:58N 33°46' E 132°04'611.7
2017-Dec-08 17:28N 33°49' E 132°10'711.2
2017-Dec-08 16:48N 33°50' E 132°19'1010.9
2017-Dec-08 15:55N 33°52' E 132°30'410.7
2017-Dec-08 15:30N 33°54' E 132°35'510.1
2017-Dec-08 15:00N 33°56' E 132°40'5 9.9
2017-Dec-08 14:30N 34°00' E 132°44'85 9.5
2017-Dec-08 05:30N 34°25' E 134°23'510.8
2017-Dec-08 05:00N 34°28' E 134°29'510.9
2017-Dec-08 04:31N 34°29' E 134°35'611.1
2017-Dec-08 04:01N 34°32' E 134°41'612.4
2017-Dec-08 03:30N 34°34' E 134°48'713.7
2017-Dec-08 03:00N 34°36' E 134°56'612.9
2017-Dec-08 02:30N 34°36' E 135°04'611.1
2017-Dec-08 02:00N 34°35' E 135°11'611.3
2017-Dec-08 01:30N 34°34' E 135°17'611.2
2017-Dec-08 01:00N 34°33' E 135°24'1 2.4
2017-Dec-08 00:27N 34°33' E 135°26'0 0.0
2017-Dec-07 23:57N 34°33' E 135°26'0 0.0
2017-Dec-07 23:15N 34°33' E 135°26'0 0.0
2017-Dec-07 22:57N 34°33' E 135°26'0 0.0
2017-Dec-07 22:30N 34°33' E 135°26'1 2.1
2017-Dec-07 22:00N 34°33' E 135°24'1 1.9
2017-Dec-07 21:26N 34°34' E 135°23'0 0.1
2017-Dec-07 20:59N 34°34' E 135°23'0 0.0
2017-Dec-07 20:29N 34°34' E 135°23'0 0.0
2017-Dec-07 19:59N 34°34' E 135°23'0 0.0
2017-Dec-07 19:29N 34°34' E 135°23'0 0.0
2017-Dec-07 18:59N 34°34' E 135°23'0 0.0
2017-Dec-07 18:29N 34°34' E 135°23'0 0.0
2017-Dec-07 17:59N 34°34' E 135°23'0 0.0
2017-Dec-07 17:29N 34°34' E 135°23'0 0.0
2017-Dec-07 16:59N 34°34' E 135°23'0 0.1
2017-Dec-07 16:29N 34°34' E 135°23'0 0.0
2017-Dec-07 15:59N 34°34' E 135°23'0 0.0
2017-Dec-07 15:29N 34°34' E 135°23'0 0.0
2017-Dec-07 14:56N 34°34' E 135°23'0 0.0
2017-Dec-07 14:26N 34°34' E 135°23'0 0.1
2017-Dec-07 13:56N 34°34' E 135°23'0 0.0
2017-Dec-07 13:29N 34°34' E 135°23'0 0.0
2017-Dec-07 12:59N 34°34' E 135°23'0 0.0
2017-Dec-07 12:26N 34°34' E 135°23'0 0.0
2017-Dec-07 11:59N 34°34' E 135°23'0 0.0
2017-Dec-07 11:26N 34°34' E 135°23'0 0.0
2017-Dec-07 10:56N 34°34' E 135°23'0 0.0
2017-Dec-07 10:29N 34°34' E 135°23'0 0.0
2017-Dec-07 09:59N 34°34' E 135°23'0 0.0
2017-Dec-07 09:29N 34°34' E 135°23'0 0.1
2017-Dec-07 08:59N 34°34' E 135°23'0 0.1
2017-Dec-07 08:26N 34°34' E 135°23'1 3.1
2017-Dec-07 08:01N 34°33' E 135°22'611.5
2017-Dec-07 07:30N 34°29' E 135°16'611.5
2017-Dec-07 07:01N 34°26' E 135°11'510.8
2017-Dec-07 06:30N 34°22' E 135°06'510.1
2017-Dec-07 06:00N 34°19' E 135°01'510.0
2017-Dec-07 05:30N 34°15' E 134°59'611.5
2017-Dec-07 05:00N 34°09' E 134°56'911.3
2017-Dec-07 04:11N 34°01' E 134°50'14 3.1
2017-Dec-06 23:50N 33°51' E 134°39'  
Track history (hours):
 
Tides and Currents Weather Stations Pressure Air Temp Water Temp Dewpoint Dewpoint Depression Visibility Wind Speed Wind Dir Waves Ship Positions

Shinko Maru

Last reported at 2017-Dec-11 17:00 UTC. Time now 2017-Dec-12 02:51 UTC.
Position N 33°53' E 132°31'.

Length 66 m; draft 4.6 m.

Type: Tanker. MMSI: 431501479.

Date/timePositionNaut miles runAvg speedWind from/ knotsBaromVisibWave heightAir tempDewpointWater temp
2017-Dec-11 17:00N 33°53' E 132°31'510.4
2017-Dec-11 16:30N 33°55' E 132°37'510.3
2017-Dec-11 16:00N 33°57' E 132°42'86 9.3
2017-Dec-11 06:41N 34°25' E 134°21'211.0
2017-Dec-11 06:29N 34°26' E 134°23'511.0
2017-Dec-11 06:00N 34°28' E 134°29'510.8
2017-Dec-11 05:30N 34°30' E 134°35'510.8
2017-Dec-11 05:00N 34°32' E 134°41'611.4
2017-Dec-11 04:30N 34°34' E 134°48'612.1
2017-Dec-11 04:00N 34°36' E 134°55'511.0
2017-Dec-11 03:30N 34°37' E 135°01'510.6
2017-Dec-11 03:00N 34°35' E 135°07'510.7
2017-Dec-11 02:30N 34°35' E 135°14'510.5
2017-Dec-11 02:00N 34°34' E 135°20'5 9.1
2017-Dec-11 01:31N 34°33' E 135°26'0 0.2
2017-Dec-11 01:00N 34°33' E 135°26'0 0.0
2017-Dec-11 00:30N 34°33' E 135°26'0 0.0
2017-Dec-11 00:00N 34°33' E 135°26'0 0.0
2017-Dec-10 23:30N 34°33' E 135°26'0 0.0
2017-Dec-10 23:00N 34°33' E 135°26'1 2.1
2017-Dec-10 22:31N 34°33' E 135°24'1 2.1
2017-Dec-10 21:58N 34°34' E 135°23'0 0.0
2017-Dec-10 21:28N 34°34' E 135°23'0 0.0
2017-Dec-10 20:58N 34°34' E 135°23'0 0.0
2017-Dec-10 20:28N 34°34' E 135°23'0 0.0
2017-Dec-10 19:58N 34°34' E 135°23'0 0.0
2017-Dec-10 19:28N 34°34' E 135°23'0 0.0
2017-Dec-10 18:58N 34°34' E 135°23'0 0.0
2017-Dec-10 18:28N 34°34' E 135°23'0 0.0
2017-Dec-10 17:58N 34°34' E 135°23'0 0.0
2017-Dec-10 17:28N 34°34' E 135°23'0 0.0
2017-Dec-10 16:58N 34°34' E 135°23'0 0.0
2017-Dec-10 16:28N 34°34' E 135°23'0 0.0
2017-Dec-10 15:58N 34°34' E 135°23'0 0.0
2017-Dec-10 15:28N 34°34' E 135°23'0 0.0
2017-Dec-10 14:58N 34°34' E 135°23'0 0.0
2017-Dec-10 14:28N 34°34' E 135°23'0 0.0
2017-Dec-10 13:58N 34°34' E 135°23'0 0.0
2017-Dec-10 13:28N 34°34' E 135°23'0 0.0
2017-Dec-10 12:58N 34°34' E 135°23'0 0.0
2017-Dec-10 12:28N 34°34' E 135°23'0 0.0
2017-Dec-10 11:58N 34°34' E 135°23'0 0.0
2017-Dec-10 11:28N 34°34' E 135°23'0 0.0
2017-Dec-10 10:58N 34°34' E 135°23'0 0.0
2017-Dec-10 10:28N 34°34' E 135°23'0 0.0
2017-Dec-10 09:58N 34°34' E 135°23'0 0.0
2017-Dec-10 09:28N 34°34' E 135°23'0 0.0
2017-Dec-10 08:58N 34°34' E 135°23'0 0.0
2017-Dec-10 08:28N 34°34' E 135°23'0 0.0
2017-Dec-10 07:58N 34°34' E 135°23'0 0.0
2017-Dec-10 07:28N 34°34' E 135°23'0 0.0
2017-Dec-10 06:58N 34°34' E 135°23'0 0.0
2017-Dec-10 06:28N 34°34' E 135°23'0 0.0
2017-Dec-10 05:58N 34°34' E 135°23'0 0.0
2017-Dec-10 05:28N 34°34' E 135°23'0 0.0
2017-Dec-10 04:58N 34°34' E 135°23'0 0.0
2017-Dec-10 04:28N 34°34' E 135°23'0 0.0
2017-Dec-10 03:55N 34°34' E 135°23'0 0.0
2017-Dec-10 03:28N 34°34' E 135°23'0 0.0
2017-Dec-10 02:58N 34°34' E 135°23'0 0.0
2017-Dec-10 02:28N 34°34' E 135°23'0 0.1
2017-Dec-10 01:58N 34°34' E 135°23'0 0.0
2017-Dec-10 01:28N 34°34' E 135°23'0 0.0
2017-Dec-10 00:58N 34°34' E 135°23'0 0.0
2017-Dec-10 00:30N 34°34' E 135°23'5 9.2
2017-Dec-10 00:00N 34°34' E 135°18'611.5
2017-Dec-09 23:30N 34°34' E 135°11'611.7
2017-Dec-09 23:00N 34°36' E 135°04'612.4
2017-Dec-09 22:31N 34°36' E 134°56'713.4
2017-Dec-09 22:01N 34°33' E 134°49'612.3
2017-Dec-09 21:30N 34°31' E 134°42'612.0
2017-Dec-09 21:00N 34°29' E 134°35'611.9
2017-Dec-09 20:30N 34°26' E 134°28'1411.8
2017-Dec-09 19:18N 34°25' E 134°11'7410.7
2017-Dec-09 12:23N 34°01' E 132°46'411.0
2017-Dec-09 12:00N 33°58' E 132°43'510.5
2017-Dec-09 11:29N 33°54' E 132°38'611.0
2017-Dec-09 10:59N 33°52' E 132°32'610.9
2017-Dec-09 10:25N 33°50' E 132°25'510.7
2017-Dec-09 09:55N 33°50' E 132°18'611.1
2017-Dec-09 09:23N 33°49' E 132°11'411.0
2017-Dec-09 09:00N 33°47' E 132°07'1011.1
2017-Dec-09 08:05N 33°45' E 131°55'111.9
2017-Dec-09 08:00N 33°45' E 131°54'612.1
2017-Dec-09 07:30N 33°46' E 131°47'612.3
2017-Dec-09 07:00N 33°48' E 131°39'612.0
2017-Dec-09 06:30N 33°49' E 131°32'611.9
2017-Dec-09 06:00N 33°50' E 131°25'611.8
2017-Dec-09 05:30N 33°51' E 131°18'611.8
2017-Dec-09 05:00N 33°53' E 131°12'611.4
2017-Dec-09 04:30N 33°56' E 131°06'510.7
2017-Dec-09 04:01N 33°58' E 131°00'4 8.4
2017-Dec-09 03:30N 33°56' E 130°56'3 6.2
2017-Dec-09 03:00N 33°55' E 130°53'1 2.1
2017-Dec-09 02:25N 33°55' E 130°51'0 0.0
2017-Dec-09 01:58N 33°55' E 130°51'0 0.0
2017-Dec-09 01:25N 33°55' E 130°51'0 0.0
2017-Dec-09 00:58N 33°55' E 130°51'0 0.1
2017-Dec-09 00:30N 33°55' E 130°51'3 6.4
2017-Dec-09 00:00N 33°55' E 130°55'4 7.8
2017-Dec-08 23:30N 33°58' E 130°58'4 7.6
2017-Dec-08 23:00N 33°58' E 131°02'511.0
2017-Dec-08 22:30N 33°55' E 131°08'611.1
2017-Dec-08 22:00N 33°52' E 131°14'611.0
2017-Dec-08 21:30N 33°51' E 131°20'510.8
2017-Dec-08 21:00N 33°51' E 131°27'510.6
2017-Dec-08 20:30N 33°50' E 131°33'510.6
2017-Dec-08 20:01N 33°49' E 131°39'510.2
2017-Dec-08 19:30N 33°47' E 131°45'610.1
2017-Dec-08 18:56N 33°46' E 131°52'810.4
2017-Dec-08 18:07N 33°45' E 132°02'211.3
2017-Dec-08 17:58N 33°46' E 132°04'611.7
2017-Dec-08 17:28N 33°49' E 132°10'711.2
2017-Dec-08 16:48N 33°50' E 132°19'1010.9
2017-Dec-08 15:55N 33°52' E 132°30'410.7
2017-Dec-08 15:30N 33°54' E 132°35'510.1
2017-Dec-08 15:00N 33°56' E 132°40'5 9.9
2017-Dec-08 14:30N 34°00' E 132°44'85 9.5
2017-Dec-08 05:30N 34°25' E 134°23'510.8
2017-Dec-08 05:00N 34°28' E 134°29'510.9
2017-Dec-08 04:31N 34°29' E 134°35'611.1
2017-Dec-08 04:01N 34°32' E 134°41'612.4
2017-Dec-08 03:30N 34°34' E 134°48'713.7
2017-Dec-08 03:00N 34°36' E 134°56'612.9
2017-Dec-08 02:30N 34°36' E 135°04'611.1
2017-Dec-08 02:00N 34°35' E 135°11'611.3
2017-Dec-08 01:30N 34°34' E 135°17'611.2
2017-Dec-08 01:00N 34°33' E 135°24'1 2.4
2017-Dec-08 00:27N 34°33' E 135°26'0 0.0
2017-Dec-07 23:57N 34°33' E 135°26'0 0.0
2017-Dec-07 23:15N 34°33' E 135°26'0 0.0
2017-Dec-07 22:57N 34°33' E 135°26'0 0.0
2017-Dec-07 22:30N 34°33' E 135°26'1 2.1
2017-Dec-07 22:00N 34°33' E 135°24'1 1.9
2017-Dec-07 21:26N 34°34' E 135°23'0 0.1
2017-Dec-07 20:59N 34°34' E 135°23'0 0.0
2017-Dec-07 20:29N 34°34' E 135°23'0 0.0
2017-Dec-07 19:59N 34°34' E 135°23'0 0.0
2017-Dec-07 19:29N 34°34' E 135°23'0 0.0
2017-Dec-07 18:59N 34°34' E 135°23'0 0.0
2017-Dec-07 18:29N 34°34' E 135°23'0 0.0
2017-Dec-07 17:59N 34°34' E 135°23'0 0.0
2017-Dec-07 17:29N 34°34' E 135°23'0 0.0
2017-Dec-07 16:59N 34°34' E 135°23'0 0.1
2017-Dec-07 16:29N 34°34' E 135°23'0 0.0
2017-Dec-07 15:59N 34°34' E 135°23'0 0.0
2017-Dec-07 15:29N 34°34' E 135°23'0 0.0
2017-Dec-07 14:56N 34°34' E 135°23'0 0.0
2017-Dec-07 14:26N 34°34' E 135°23'0 0.1
2017-Dec-07 13:56N 34°34' E 135°23'0 0.0
2017-Dec-07 13:29N 34°34' E 135°23'0 0.0
2017-Dec-07 12:59N 34°34' E 135°23'0 0.0
2017-Dec-07 12:26N 34°34' E 135°23'0 0.0
2017-Dec-07 11:59N 34°34' E 135°23'0 0.0
2017-Dec-07 11:26N 34°34' E 135°23'0 0.0
2017-Dec-07 10:56N 34°34' E 135°23'0 0.0
2017-Dec-07 10:29N 34°34' E 135°23'0 0.0
2017-Dec-07 09:59N 34°34' E 135°23'0 0.0
2017-Dec-07 09:29N 34°34' E 135°23'0 0.1
2017-Dec-07 08:59N 34°34' E 135°23'0 0.1
2017-Dec-07 08:26N 34°34' E 135°23'1 3.1
2017-Dec-07 08:01N 34°33' E 135°22'611.5
2017-Dec-07 07:30N 34°29' E 135°16'611.5
2017-Dec-07 07:01N 34°26' E 135°11'510.8
2017-Dec-07 06:30N 34°22' E 135°06'510.1
2017-Dec-07 06:00N 34°19' E 135°01'510.0
2017-Dec-07 05:30N 34°15' E 134°59'611.5
2017-Dec-07 05:00N 34°09' E 134°56'911.3
2017-Dec-07 04:11N 34°01' E 134°50'14 3.1
2017-Dec-06 23:50N 33°51' E 134°39'  

Dump ship's entire track history